Time;durP1;ratioP1;P1;durP2;ratioP2;P2;SDS_P1;SDS_P2;PMS_P1;PMS_P2;Temp;Humidity;BMP_temperature;BMP_pressure;BME280_temperature;BME280_humidity;BME280_pressure;Samples;Min_cycle;Max_cycle;Signal;HPM_P1;HPM_P2
2022/01/30 00:00:24;;;;;;;3.28;1.02;;;;;;;4.88;89.46;98630.13;5035324;28;20052;-61
2022/01/30 00:03:10;;;;;;;1.40;0.70;;;;;;;4.87;89.81;98633.59;5035524;28;20056;-60
2022/01/30 00:05:56;;;;;;;1.23;0.70;;;;;;;4.93;89.34;98621.19;5035424;28;20052;-60
2022/01/30 00:08:42;;;;;;;1.05;0.63;;;;;;;4.73;90.20;98588.41;5041490;28;20048;-60
2022/01/30 00:11:32;;;;;;;1.00;0.68;;;;;;;4.76;90.60;98598.63;5035012;28;20049;-60
2022/01/30 00:14:20;;;;;;;1.00;0.60;;;;;;;4.76;90.86;98618.53;5034849;28;20089;-60
2022/01/30 00:17:21;;;;;;;2.92;0.50;;;;;;;4.73;91.05;98605.72;5035239;28;20152;-60
2022/01/30 00:20:12;;;;;;;1.08;0.63;;;;;;;4.49;91.01;98583.41;5034494;28;20056;-60
2022/01/30 00:23:11;;;;;;;0.95;0.50;;;;;;;4.63;90.79;98602.69;5019918;28;20065;-61
2022/01/30 00:25:58;;;;;;;1.27;0.50;;;;;;;4.72;90.07;98604.84;5015349;28;20060;-60
2022/01/30 00:28:43;;;;;;;0.40;0.30;;;;;;;4.73;89.67;98603.13;5043159;28;20074;-61
2022/01/30 00:31:30;;;;;;;2.55;0.60;;;;;;;4.65;90.18;98599.13;5035264;28;20052;-59
2022/01/30 00:34:16;;;;;;;1.02;0.65;;;;;;;4.72;89.62;98586.69;5034066;28;20060;-59
2022/01/30 00:37:03;;;;;;;1.75;0.63;;;;;;;4.81;89.38;98594.03;5033903;28;20053;-59
2022/01/30 00:39:49;;;;;;;1.00;0.60;;;;;;;4.75;89.50;98602.13;5033864;28;20052;-59
2022/01/30 00:42:35;;;;;;;1.38;0.50;;;;;;;4.73;89.82;98587.53;5034328;28;20048;-60
2022/01/30 00:45:21;;;;;;;1.13;0.50;;;;;;;4.68;90.25;98603.34;5034918;28;20056;-60
2022/01/30 00:48:07;;;;;;;0.88;0.50;;;;;;;4.54;90.73;98565.88;5034446;28;20397;-60
2022/01/30 00:50:52;;;;;;;0.77;0.35;;;;;;;4.64;90.39;98575.81;5019630;28;20076;-60
2022/01/30 00:53:38;;;;;;;0.40;0.30;;;;;;;4.50;91.22;98574.75;5033184;28;20060;-60
2022/01/30 00:56:24;;;;;;;1.00;0.57;;;;;;;4.54;91.21;98570.22;5034450;28;20049;-60
2022/01/30 00:59:10;;;;;;;1.13;0.68;;;;;;;4.40;92.23;98563.09;5024840;28;20068;-60
2022/01/30 01:01:55;;;;;;;1.58;0.82;;;;;;;4.41;92.16;98585.53;5033512;28;20471;-60
2022/01/30 01:04:42;;;;;;;2.15;0.38;;;;;;;4.40;92.00;98570.88;5033761;28;20499;-60
2022/01/30 01:07:28;;;;;;;1.30;0.50;;;;;;;4.30;92.51;98567.88;5033699;28;20053;-60
2022/01/30 01:13:41;;;;;;;0.55;0.30;;;;;;;4.36;91.83;98559.81;5034318;28;20528;-61
2022/01/30 01:25:36;;;;;;;0.32;0.30;;;;;;;4.60;91.06;98561.34;5033414;28;20068;-60
2022/01/30 01:28:22;;;;;;;0.68;0.30;;;;;;;4.75;90.89;98572.75;5019052;28;20076;-60
2022/01/30 01:31:08;;;;;;;0.50;0.30;;;;;;;4.83;90.84;98574.97;5033410;28;20508;-60
2022/01/30 01:36:52;;;;;;;1.10;0.30;;;;;;;4.83;91.24;98562.00;5034049;28;20056;-60
2022/01/30 01:39:38;;;;;;;0.70;0.30;;;;;;;4.86;90.04;98543.66;5033545;28;20064;-60
2022/01/30 01:42:27;;;;;;;0.30;0.20;;;;;;;5.01;89.81;98566.28;5033479;28;20056;-61
2022/01/30 01:45:21;;;;;;;0.40;0.28;;;;;;;5.12;89.18;98552.78;5033472;28;20056;-60
2022/01/30 01:48:13;;;;;;;0.68;0.30;;;;;;;5.34;87.47;98543.91;5033575;28;20052;-61
2022/01/30 01:51:16;;;;;;;0.50;0.22;;;;;;;5.41;86.84;98511.50;5033555;28;20060;-60
2022/01/30 01:54:02;;;;;;;0.30;0.20;;;;;;;5.35;87.18;98534.34;5033346;28;20397;-60
2022/01/30 01:56:47;;;;;;;0.22;0.15;;;;;;;5.41;86.25;98531.44;5046320;28;20076;-60
2022/01/30 01:59:37;;;;;;;0.98;0.30;;;;;;;5.46;85.80;98513.88;5032019;28;20060;-60
2022/01/30 02:02:37;;;;;;;0.63;0.25;;;;;;;5.46;85.68;98506.06;5032939;28;20056;-61
2022/01/30 02:05:26;;;;;;;0.38;0.20;;;;;;;5.38;85.61;98483.09;5018797;28;20060;-61
2022/01/30 02:08:34;;;;;;;4.90;0.43;;;;;;;5.52;85.16;98489.31;5033826;28;20428;-61
2022/01/30 02:11:36;;;;;;;0.45;0.10;;;;;;;5.66;84.11;98492.03;5052643;28;20060;-60
2022/01/30 02:14:42;;;;;;;0.40;0.30;;;;;;;5.61;84.23;98477.59;5032587;28;20500;-60
2022/01/30 02:24:05;;;;;;;0.65;0.20;;;;;;;5.70;83.91;98476.25;5033421;28;20048;-60
2022/01/30 02:26:52;;;;;;;0.82;0.30;;;;;;;5.58;84.60;98469.97;5032116;28;20053;-61
2022/01/30 02:29:38;;;;;;;0.28;0.20;;;;;;;5.61;84.46;98449.88;5032076;28;20068;-61
2022/01/30 02:32:24;;;;;;;0.60;0.30;;;;;;;5.68;84.52;98476.34;5032298;28;20393;-61
2022/01/30 02:35:10;;;;;;;0.15;0.10;;;;;;;5.75;84.20;98479.47;5031883;28;20052;-61
2022/01/30 02:37:58;;;;;;;1.90;0.47;;;;;;;5.78;84.31;98456.75;5032824;28;20508;-61
2022/01/30 02:40:47;;;;;;;0.50;0.30;;;;;;;5.77;84.67;98464.63;5032993;28;20052;-61
2022/01/30 02:43:39;;;;;;;0.82;0.40;;;;;;;5.73;85.36;98470.94;5032552;28;20500;-61
2022/01/30 02:46:32;;;;;;;1.27;0.30;;;;;;;5.76;85.03;98475.97;5031999;28;20056;-60
2022/01/30 02:52:06;;;;;;;0.25;0.20;;;;;;;5.74;85.35;98465.66;5032313;28;20052;-60
2022/01/30 02:54:52;;;;;;;0.40;0.28;;;;;;;5.71;85.84;98446.75;5011621;28;20056;-61
2022/01/30 02:57:39;;;;;;;0.57;0.20;;;;;;;5.76;85.14;98447.38;5039238;28;20056;-61
2022/01/30 03:00:25;;;;;;;2.15;0.50;;;;;;;5.75;85.42;98443.91;5012760;28;20045;-61
2022/01/30 03:03:10;;;;;;;0.55;0.40;;;;;;;5.70;85.85;98440.72;5018747;28;20053;-61
2022/01/30 03:05:56;;;;;;;0.93;0.50;;;;;;;5.77;85.36;98442.09;5013132;28;20461;-61
2022/01/30 03:08:42;;;;;;;0.70;0.30;;;;;;;5.76;85.62;98440.38;5011882;28;20410;-61
2022/01/30 03:11:28;;;;;;;0.65;0.40;;;;;;;5.82;85.17;98434.03;5012999;28;20409;-62
2022/01/30 03:14:14;;;;;;;0.90;0.40;;;;;;;5.78;85.62;98433.34;5012793;28;20061;-61
2022/01/30 03:17:00;;;;;;;0.30;0.30;;;;;;;5.70;85.61;98417.31;5012289;28;20057;-58
2022/01/30 03:19:46;;;;;;;0.65;0.30;;;;;;;5.73;85.75;98430.16;5022022;28;20505;-59
2022/01/30 03:22:32;;;;;;;0.70;0.30;;;;;;;5.89;84.76;98424.94;5031815;28;20056;-61
2022/01/30 03:25:18;;;;;;;0.40;0.20;;;;;;;5.88;84.83;98420.69;5045582;28;20369;-61
2022/01/30 03:28:15;;;;;;;1.00;0.22;;;;;;;5.82;85.11;98418.44;5059421;28;20112;-61
2022/01/30 03:31:07;;;;;;;0.68;0.20;;;;;;;5.90;84.73;98431.00;5060594;28;20484;-61
2022/01/30 03:33:56;;;;;;;0.60;0.45;;;;;;;5.99;84.34;98440.91;5026668;28;20071;-60
2022/01/30 03:36:47;;;;;;;0.38;0.30;;;;;;;5.95;84.31;98431.59;5063033;28;20369;-60
2022/01/30 03:39:34;;;;;;;1.35;0.50;;;;;;;5.91;85.35;98443.06;5063201;28;20052;-60
2022/01/30 03:42:20;;;;;;;0.43;0.30;;;;;;;5.96;84.59;98454.06;5062922;28;20053;-60
2022/01/30 03:45:06;;;;;;;0.38;0.10;;;;;;;6.00;84.62;98444.34;5028406;28;20045;-60
2022/01/30 03:47:55;;;;;;;1.05;0.30;;;;;;;6.04;84.76;98438.91;5034779;28;20052;-61
2022/01/30 03:50:48;;;;;;;1.70;0.40;;;;;;;6.04;85.50;98435.44;5026513;28;20056;-60
2022/01/30 03:53:34;;;;;;;0.40;0.30;;;;;;;5.98;85.83;98441.81;5048697;28;20045;-61
2022/01/30 03:56:20;;;;;;;0.45;0.25;;;;;;;6.09;85.47;98450.84;5034794;28;20101;-61
2022/01/30 03:59:06;;;;;;;0.40;0.32;;;;;;;6.09;85.22;98435.25;5034890;28;20053;-61
2022/01/30 04:01:52;;;;;;;0.50;0.30;;;;;;;6.19;84.45;98431.19;5033981;28;20409;-61
2022/01/30 04:04:39;;;;;;;0.57;0.32;;;;;;;6.20;84.11;98432.84;5034537;28;20060;-61
2022/01/30 04:07:26;;;;;;;1.35;0.10;;;;;;;6.20;84.84;98432.03;5035530;28;20049;-61
2022/01/30 04:10:31;;;;;;;0.20;0.13;;;;;;;6.10;86.75;98440.34;5034534;28;20408;-60
2022/01/30 04:13:37;;;;;;;0.52;0.40;;;;;;;5.99;87.88;98438.28;5048465;28;20048;-60
2022/01/30 04:16:55;;;;;;;2.15;0.30;;;;;;;5.92;87.88;98444.78;5027893;28;20060;-60
2022/01/30 04:19:52;;;;;;;0.20;0.10;;;;;;;5.98;86.89;98423.63;5034049;28;20511;-60
2022/01/30 04:22:56;;;;;;;1.08;0.28;;;;;;;6.03;86.28;98436.38;5035463;28;20052;-60
2022/01/30 04:26:12;;;;;;;1.35;0.20;;;;;;;6.01;85.79;98428.66;5033952;28;20060;-60
2022/01/30 04:29:16;;;;;;;0.20;0.10;;;;;;;6.05;85.24;98444.97;5035118;28;20052;-60
2022/01/30 04:32:40;;;;;;;0.73;0.30;;;;;;;6.08;85.43;98444.78;5034291;28;20049;-61
2022/01/30 04:35:32;;;;;;;0.52;0.20;;;;;;;5.96;86.47;98454.06;5040664;28;20048;-61
2022/01/30 04:38:35;;;;;;;0.30;0.22;;;;;;;6.01;85.55;98449.47;5048241;28;20052;-60
2022/01/30 04:42:04;;;;;;;0.68;0.35;;;;;;;5.92;85.79;98443.00;5039561;28;20056;-61
2022/01/30 05:01:57;;;;;;;0.30;0.20;;;;;;;6.01;83.37;98457.25;5034319;28;20496;-61
2022/01/30 05:08:38;;;;;;;0.10;0.10;;;;;;;6.04;82.70;98433.72;5032403;28;20056;-61
2022/01/30 05:11:48;;;;;;;0.38;0.20;;;;;;;6.07;83.15;98427.50;5039272;28;20401;-61
2022/01/30 05:15:01;;;;;;;0.40;0.20;;;;;;;6.12;82.24;98422.06;5028592;28;20361;-60
2022/01/30 05:18:28;;;;;;;0.30;0.15;;;;;;;6.03;82.08;98429.41;5033608;28;20053;-60
2022/01/30 05:21:17;;;;;;;0.32;0.05;;;;;;;6.02;82.22;98403.50;5034520;28;20488;-60
2022/01/30 05:24:09;;;;;;;0.22;0.10;;;;;;;6.08;81.55;98434.41;5037925;28;20056;-60
2022/01/30 05:27:05;;;;;;;0.52;0.10;;;;;;;5.97;83.76;98473.97;5031706;28;20060;-60
2022/01/30 05:30:16;;;;;;;0.13;0.10;;;;;;;5.30;90.19;98477.44;5029084;28;20393;-60
2022/01/30 05:33:18;;;;;;;0.10;0.00;;;;;;;4.78;92.69;98489.53;5031981;28;20044;-59
2022/01/30 05:36:23;;;;;;;0.20;0.00;;;;;;;4.56;94.54;98480.19;5033788;28;20048;-60
2022/01/30 05:39:27;;;;;;;0.47;0.17;;;;;;;4.42;94.20;98463.53;5040614;28;20060;-59
2022/01/30 05:42:33;;;;;;;0.40;0.10;;;;;;;4.49;92.56;98489.19;5033617;28;20070;-61
2022/01/30 05:45:46;;;;;;;0.55;0.10;;;;;;;4.42;90.25;98470.50;5032317;28;20052;-60
2022/01/30 05:48:48;;;;;;;0.40;0.10;;;;;;;4.48;89.93;98521.22;5032309;28;20057;-61
2022/01/30 05:51:48;;;;;;;0.20;0.10;;;;;;;4.44;89.10;98491.97;5038432;28;20072;-60
2022/01/30 05:54:40;;;;;;;0.65;0.17;;;;;;;4.37;87.48;98478.50;5032948;28;20057;-60
2022/01/30 05:57:27;;;;;;;0.10;0.00;;;;;;;4.49;87.10;98486.59;5032157;28;20049;-60
2022/01/30 06:00:16;;;;;;;0.10;0.10;;;;;;;4.49;87.24;98492.63;5054114;28;20063;-60
2022/01/30 06:03:17;;;;;;;0.63;0.08;;;;;;;4.50;85.43;98481.34;5032309;28;20056;-60
2022/01/30 06:06:03;;;;;;;0.50;0.13;;;;;;;4.41;86.17;98482.59;5032808;28;20052;-60
2022/01/30 06:09:02;;;;;;;0.82;0.15;;;;;;;4.29;86.01;98472.81;5033562;28;20052;-60
2022/01/30 06:11:49;;;;;;;2.00;0.20;;;;;;;4.30;85.91;98477.94;5031791;28;20048;-61
2022/01/30 06:14:35;;;;;;;3.00;0.47;;;;;;;4.13;85.89;98481.31;5017959;28;20498;-60
2022/01/30 06:17:28;;;;;;;0.85;0.20;;;;;;;4.09;86.54;98484.97;5032857;28;20061;-60
2022/01/30 06:20:17;;;;;;;1.52;0.20;;;;;;;4.13;86.33;98488.25;5032647;28;20052;-60
2022/01/30 06:23:42;;;;;;;1.67;0.28;;;;;;;4.20;85.55;98507.81;5030869;28;20052;-60
2022/01/30 06:26:47;;;;;;;1.33;0.20;;;;;;;4.22;85.84;98511.16;5030318;28;20056;-60
2022/01/30 06:29:36;;;;;;;0.55;0.30;;;;;;;4.35;85.28;98516.63;5032965;28;20044;-60
2022/01/30 06:32:41;;;;;;;1.13;0.22;;;;;;;4.34;84.92;98511.50;5032820;28;20409;-60
2022/01/30 06:35:46;;;;;;;1.35;0.30;;;;;;;4.11;85.38;98495.25;5032651;28;20495;-60
2022/01/30 06:38:47;;;;;;;0.50;0.20;;;;;;;4.13;86.28;98521.97;5031733;28;20060;-60
2022/01/30 06:41:33;;;;;;;1.40;0.40;;;;;;;4.15;86.54;98554.69;5032352;28;20068;-61
2022/01/30 06:44:39;;;;;;;1.20;0.30;;;;;;;4.20;86.66;98536.31;5031996;28;20048;-60
2022/01/30 06:47:43;;;;;;;1.30;0.30;;;;;;;4.15;86.85;98530.50;5031966;28;20377;-61
2022/01/30 06:50:48;;;;;;;1.80;0.32;;;;;;;4.24;86.45;98537.03;5032584;28;20060;-61
2022/01/30 06:54:03;;;;;;;0.85;0.20;;;;;;;4.35;84.73;98546.91;5030665;28;20057;-61
2022/01/30 06:57:07;;;;;;;0.17;0.13;;;;;;;4.46;83.95;98565.41;5031940;28;20048;-60
2022/01/30 07:00:12;;;;;;;1.30;0.38;;;;;;;4.39;82.20;98566.63;5012794;28;20057;-60
2022/01/30 07:03:27;;;;;;;1.48;0.20;;;;;;;4.56;82.26;98583.97;5025451;28;20057;-62
2022/01/30 07:06:33;;;;;;;2.83;0.35;;;;;;;4.49;81.71;98600.75;5030480;28;20077;-61
2022/01/30 07:09:19;;;;;;;2.55;0.38;;;;;;;4.60;81.15;98608.88;5032311;28;20396;-60
2022/01/30 07:12:05;;;;;;;1.10;0.20;;;;;;;4.61;81.93;98644.28;5022883;28;20053;-60
2022/01/30 07:14:51;;;;;;;2.22;0.30;;;;;;;4.55;81.45;98631.59;5031168;28;20056;-62
2022/01/30 07:17:37;;;;;;;2.40;0.25;;;;;;;4.59;81.53;98601.16;5036545;28;20069;-59
2022/01/30 07:20:22;;;;;;;3.60;0.55;;;;;;;4.57;80.58;98593.44;5039787;28;20053;-61
2022/01/30 07:23:08;;;;;;;0.68;0.35;;;;;;;4.75;76.74;98607.31;5036425;28;20508;-60
2022/01/30 07:25:54;;;;;;;2.72;0.70;;;;;;;4.83;76.29;98608.72;5036112;28;20500;-65
2022/01/30 07:28:39;;;;;;;2.42;0.40;;;;;;;4.93;76.46;98599.56;5027910;28;20045;-60
2022/01/30 07:31:25;;;;;;;1.83;0.32;;;;;;;5.12;74.05;98602.13;5018252;28;20053;-60
2022/01/30 07:34:11;;;;;;;5.03;0.45;;;;;;;6.01;74.52;98602.06;5024466;28;20052;-66
2022/01/30 07:36:58;;;;;;;3.38;0.30;;;;;;;5.35;73.75;98589.78;5015560;28;20045;-65
2022/01/30 07:39:44;;;;;;;0.82;0.35;;;;;;;5.49;74.68;98585.63;5016016;28;20056;-68
2022/01/30 07:42:31;;;;;;;1.00;0.40;;;;;;;5.66;74.08;98570.00;5015816;28;20061;-69
2022/01/30 07:45:17;;;;;;;3.63;0.52;;;;;;;6.10;71.31;98575.63;5026641;28;20072;-68
2022/01/30 07:48:03;;;;;;;2.20;0.60;;;;;;;6.36;69.13;98569.91;5039033;28;20040;-67
2022/01/30 07:50:49;;;;;;;2.50;0.43;;;;;;;6.08;69.21;98556.63;5029939;28;20045;-65
2022/01/30 07:53:35;;;;;;;1.75;0.30;;;;;;;5.89;68.83;98564.53;5028434;28;20045;-65
2022/01/30 07:56:21;;;;;;;3.33;0.50;;;;;;;6.71;65.96;98559.31;5026687;28;20056;-69
2022/01/30 07:59:06;;;;;;;1.75;0.50;;;;;;;7.12;63.45;98544.03;5040183;28;20064;-65
2022/01/30 08:01:53;;;;;;;1.63;0.60;;;;;;;7.40;70.28;98555.44;5035226;28;20053;-54
2022/01/30 08:04:41;;;;;;;2.38;0.50;;;;;;;7.97;59.50;98568.63;5035110;28;20060;-64
2022/01/30 08:07:27;;;;;;;4.72;0.57;;;;;;;8.27;59.43;98570.28;5033773;28;20060;-69
2022/01/30 08:10:13;;;;;;;2.55;0.63;;;;;;;7.51;59.63;98562.63;5034274;28;20516;-72
2022/01/30 08:12:59;;;;;;;2.30;0.68;;;;;;;6.72;63.00;98554.97;5034899;28;20401;-69
2022/01/30 08:15:46;;;;;;;3.08;0.60;;;;;;;6.19;64.93;98574.25;5027585;28;20544;-65
2022/01/30 08:18:33;;;;;;;4.05;0.93;;;;;;;5.98;65.79;98558.84;5014236;28;20052;-67
2022/01/30 08:21:19;;;;;;;5.47;1.08;;;;;;;5.89;65.87;98559.34;5015586;28;20057;-66
2022/01/30 08:24:05;;;;;;;5.30;0.80;;;;;;;5.84;65.95;98566.53;5014732;28;20053;-66
2022/01/30 08:26:51;;;;;;;3.22;0.73;;;;;;;7.98;78.72;98589.41;5014888;28;20060;-59
2022/01/30 08:29:38;;;;;;;5.75;0.73;;;;;;;7.09;65.16;98591.09;5014804;28;20053;-60
2022/01/30 08:32:23;;;;;;;3.70;0.70;;;;;;;6.13;66.09;98588.44;5014334;28;20492;-59
2022/01/30 08:35:11;;;;;;;4.78;0.77;;;;;;;6.06;67.68;98581.03;5017462;28;20061;-59
2022/01/30 08:38:00;;;;;;;4.57;0.90;;;;;;;5.99;67.14;98575.31;5054046;28;20049;-59
2022/01/30 08:40:47;;;;;;;1.67;0.57;;;;;;;5.65;67.51;98580.47;5016361;28;20108;-60
2022/01/30 08:43:36;;;;;;;2.03;0.50;;;;;;;5.48;67.62;98556.22;5018860;28;20056;-61
2022/01/30 08:46:22;;;;;;;2.78;0.63;;;;;;;5.49;68.35;98565.69;5014082;28;20053;-62
2022/01/30 08:49:08;;;;;;;2.55;1.00;;;;;;;7.55;92.45;98594.59;5014475;28;20052;-63
2022/01/30 08:51:53;;;;;;;7.40;0.60;;;;;;;7.33;65.47;98606.28;5014482;28;20513;-58
2022/01/30 08:54:39;;;;;;;2.10;0.40;;;;;;;5.20;72.61;98650.25;5015122;28;20057;-56
2022/01/30 08:57:25;;;;;;;2.63;0.40;;;;;;;4.79;69.46;98654.72;5019536;28;20049;-60
2022/01/30 09:00:14;;;;;;;2.30;0.80;;;;;;;4.98;72.43;98633.94;5018535;28;20520;-59
2022/01/30 09:03:00;;;;;;;2.72;0.40;;;;;;;4.52;67.96;98632.56;5041338;28;20057;-59
2022/01/30 09:05:46;;;;;;;1.05;0.35;;;;;;;4.49;67.87;98609.38;5020289;28;20076;-60
2022/01/30 09:08:32;;;;;;;3.58;0.50;;;;;;;4.35;68.08;98629.91;5014352;28;20060;-59
2022/01/30 09:11:18;;;;;;;2.15;0.32;;;;;;;4.36;68.43;98647.16;5020674;28;20135;-59
2022/01/30 09:14:04;;;;;;;4.35;0.50;;;;;;;4.44;68.17;98630.34;5028501;28;20496;-58
2022/01/30 09:16:50;;;;;;;3.10;0.57;;;;;;;4.22;68.47;98627.88;5017729;28;20057;-59
2022/01/30 09:19:36;;;;;;;1.23;0.40;;;;;;;4.35;69.41;98658.44;5013109;28;20049;-59
2022/01/30 09:22:21;;;;;;;4.85;0.50;;;;;;;4.37;69.26;98641.06;5025856;28;20060;-59
2022/01/30 09:25:09;;;;;;;3.10;0.73;;;;;;;4.57;68.04;98655.72;5030831;28;20044;-60
2022/01/30 09:27:55;;;;;;;2.03;0.45;;;;;;;4.54;68.11;98633.34;5032059;28;20056;-59
2022/01/30 09:30:41;;;;;;;6.05;0.73;;;;;;;4.73;66.94;98622.13;5029215;28;20041;-63
2022/01/30 09:33:26;;;;;;;1.83;0.65;;;;;;;4.63;67.43;98613.94;5022788;28;20057;-63
2022/01/30 09:36:13;;;;;;;2.38;0.70;;;;;;;4.72;67.68;98624.81;5032567;28;20052;-62
2022/01/30 09:39:00;;;;;;;3.42;0.57;;;;;;;5.26;66.38;98632.63;5015202;28;20053;-65
2022/01/30 09:41:48;;;;;;;6.78;0.60;;;;;;;6.96;63.25;98625.66;5057932;28;20064;-60
2022/01/30 09:44:39;;;;;;;4.32;0.60;;;;;;;6.23;62.21;98643.44;5029910;28;20048;-63
2022/01/30 09:47:25;;;;;;;2.47;0.55;;;;;;;6.12;62.26;98615.38;5030903;28;20547;-57
2022/01/30 09:50:10;;;;;;;2.00;0.43;;;;;;;7.22;57.85;98630.31;5031254;28;20056;-62
2022/01/30 09:52:56;;;;;;;4.40;0.73;;;;;;;7.63;55.00;98623.66;5025566;28;20048;-66
2022/01/30 09:55:44;;;;;;;3.90;0.45;;;;;;;6.94;56.59;98622.28;5030448;28;20064;-60
2022/01/30 09:58:30;;;;;;;3.75;0.52;;;;;;;6.58;57.73;98626.84;5028050;28;20052;-63
2022/01/30 10:01:16;;;;;;;3.58;0.75;;;;;;;6.15;59.20;98633.41;5032269;28;20065;-64
2022/01/30 10:04:03;;;;;;;2.03;0.50;;;;;;;6.10;58.54;98632.84;5022920;28;20052;-64
2022/01/30 10:07:00;;;;;;;5.40;0.73;;;;;;;6.23;58.10;98621.78;5031944;28;20072;-66
2022/01/30 10:09:48;;;;;;;2.67;0.47;;;;;;;7.50;49.68;98594.84;5024118;28;20065;-64
2022/01/30 10:12:34;;;;;;;4.88;0.50;;;;;;;7.53;46.32;98599.88;5032670;28;20049;-65
2022/01/30 10:15:20;;;;;;;3.08;0.50;;;;;;;7.30;45.69;98627.28;5030110;28;20100;-63
2022/01/30 10:18:07;;;;;;;4.22;0.60;;;;;;;6.81;47.36;98598.69;5030972;28;20051;-60
2022/01/30 10:20:53;;;;;;;2.22;0.57;;;;;;;6.61;46.90;98618.88;5031905;28;20060;-62
2022/01/30 10:23:38;;;;;;;4.78;0.75;;;;;;;6.46;50.94;98597.13;5031523;28;20060;-59
2022/01/30 10:26:32;;;;;;;3.78;0.80;;;;;;;6.59;48.49;98591.25;5036716;28;20048;-62
2022/01/30 10:29:21;;;;;;;1.58;0.40;;;;;;;6.30;47.85;98604.09;5032369;28;20057;-69
2022/01/30 10:32:10;;;;;;;1.35;0.32;;;;;;;6.36;47.25;98606.34;5031746;28;20156;-64
2022/01/30 10:34:57;;;;;;;2.72;0.45;;;;;;;6.22;47.97;98588.88;5030944;28;20060;-63
2022/01/30 10:37:46;;;;;;;2.03;0.32;;;;;;;6.59;46.86;98531.38;5032366;28;20060;-63
2022/01/30 10:40:37;;;;;;;2.78;0.40;;;;;;;6.76;45.54;98564.25;5031307;28;20052;-47
2022/01/30 10:43:43;;;;;;;2.08;0.60;;;;;;;6.65;46.02;98601.31;5023407;28;20151;-47
2022/01/30 10:46:39;;;;;;;2.47;0.43;;;;;;;7.17;44.38;98562.00;5014848;28;20052;-46
2022/01/30 10:49:25;;;;;;;5.93;0.63;;;;;;;8.92;44.76;98577.59;5031525;28;20508;-44
2022/01/30 10:52:13;;;;;;;6.53;0.82;;;;;;;9.21;47.18;98565.25;5031420;28;20053;-50
2022/01/30 10:55:05;;;;;;;1.88;0.65;;;;;;;8.65;55.86;98581.88;5028973;28;20151;-48
2022/01/30 10:57:51;;;;;;;3.17;0.70;;;;;;;8.86;47.84;98573.63;5026554;28;20060;-49
2022/01/30 11:00:49;;;;;;;6.05;0.70;;;;;;;10.47;59.06;98587.31;5029438;28;20048;-49
2022/01/30 11:03:50;;;;;;;4.85;0.50;;;;;;;9.31;40.14;98581.16;5023445;28;20053;-48
2022/01/30 11:06:39;;;;;;;2.22;0.52;;;;;;;7.72;42.72;98577.94;5024423;28;20068;-49
2022/01/30 11:09:32;;;;;;;4.15;0.85;;;;;;;7.67;43.38;98580.00;5012636;28;20057;-49
2022/01/30 11:12:29;;;;;;;3.45;0.80;;;;;;;7.18;44.29;98593.16;5012332;28;20085;-49
2022/01/30 11:16:54;;;;;;;5.60;0.73;;;;;;;6.98;44.54;98581.28;5017467;28;20052;-47
2022/01/30 11:18:29;;;;;;;4.90;0.70;;;;;;;6.79;45.37;98590.13;5017829;28;20053;-52
2022/01/30 11:21:24;;;;;;;2.15;0.63;;;;;;;6.60;45.19;98595.53;5024704;28;20057;-49
2022/01/30 11:24:13;;;;;;;3.42;0.60;;;;;;;6.49;45.55;98583.09;5015956;28;20369;-51
2022/01/30 11:27:00;;;;;;;5.28;1.05;;;;;;;6.55;45.32;98571.50;5024914;28;20057;-48
2022/01/30 11:29:47;;;;;;;3.83;0.75;;;;;;;6.51;46.16;98574.28;5026980;28;20048;-46
2022/01/30 11:32:32;;;;;;;3.90;0.63;;;;;;;6.85;44.97;98607.19;5032166;28;20500;-47
2022/01/30 11:35:18;;;;;;;2.35;0.50;;;;;;;7.54;43.21;98583.31;5031657;28;20507;-50
2022/01/30 11:38:04;;;;;;;2.17;0.52;;;;;;;7.02;43.66;98568.00;5036370;28;20419;-49
2022/01/30 11:41:17;;;;;;;3.00;0.55;;;;;;;7.14;46.03;98563.88;5031615;28;20048;-49
2022/01/30 11:44:18;;;;;;;8.23;1.00;;;;;;;6.53;43.90;98572.44;5031986;28;20049;-51
2022/01/30 11:47:04;;;;;;;5.60;0.68;;;;;;;6.43;45.07;98589.47;5030273;28;20060;-49
2022/01/30 11:50:04;;;;;;;1.65;0.28;;;;;;;6.23;45.39;98598.38;5031556;28;20163;-49
2022/01/30 11:52:58;;;;;;;5.72;0.60;;;;;;;6.21;45.91;98590.63;5037835;28;20420;-50
2022/01/30 11:55:50;;;;;;;4.25;0.50;;;;;;;6.21;45.67;98590.63;5034514;28;20056;-51
2022/01/30 11:58:46;;;;;;;2.25;0.40;;;;;;;6.19;45.47;98581.22;5040235;28;20511;-46
2022/01/30 12:01:36;;;;;;;2.78;1.23;;;;;;;6.07;45.37;98585.34;5027827;28;20053;-53
2022/01/30 12:04:25;;;;;;;2.15;0.70;;;;;;;6.00;45.98;98563.97;5021328;28;20397;-50
2022/01/30 12:07:46;;;;;;;2.53;0.50;;;;;;;6.07;46.54;98606.13;5014649;28;20413;-51
2022/01/30 12:10:32;;;;;;;3.65;0.55;;;;;;;5.94;46.57;98579.91;5015264;28;20444;-47
2022/01/30 12:13:44;;;;;;;3.45;0.88;;;;;;;6.01;46.52;98571.69;5030251;28;20049;-53
2022/01/30 12:16:56;;;;;;;4.47;0.50;;;;;;;6.02;47.00;98585.53;5035143;28;20060;-47
2022/01/30 12:19:47;;;;;;;8.48;1.25;;;;;;;5.96;46.03;98580.63;5034674;28;20060;-48
2022/01/30 12:22:33;;;;;;;2.22;0.60;;;;;;;5.88;45.68;98574.09;5039830;28;20056;-48
2022/01/30 12:25:34;;;;;;;5.30;0.63;;;;;;;5.89;45.88;98593.16;5031351;28;20057;-50
2022/01/30 12:28:38;;;;;;;2.72;0.80;;;;;;;5.83;46.56;98577.84;5018929;28;20048;-49
2022/01/30 12:31:26;;;;;;;5.03;0.40;;;;;;;5.76;46.06;98587.75;5014038;28;20053;-49
2022/01/30 12:34:16;;;;;;;5.90;0.68;;;;;;;5.82;44.71;98574.41;5014532;28;20053;-50
2022/01/30 12:37:04;;;;;;;3.20;0.52;;;;;;;5.89;44.62;98591.38;5014876;28;20512;-48
2022/01/30 12:39:50;;;;;;;4.65;1.08;;;;;;;5.88;44.63;98607.91;5014793;28;20080;-50
2022/01/30 12:42:36;;;;;;;3.47;0.50;;;;;;;5.80;44.64;98597.06;5014765;28;20060;-53
2022/01/30 12:45:22;;;;;;;7.65;0.50;;;;;;;5.80;45.23;98586.66;5014359;28;20053;-53
2022/01/30 12:48:09;;;;;;;7.80;0.82;;;;;;;5.85;46.30;98586.41;5014211;28;20402;-50
2022/01/30 12:50:58;;;;;;;7.47;0.70;;;;;;;5.75;45.54;98580.84;5014314;28;20450;-53
2022/01/30 12:53:44;;;;;;;5.38;0.77;;;;;;;5.90;46.11;98605.22;5022444;28;20061;-49
2022/01/30 12:56:31;;;;;;;6.90;0.80;;;;;;;6.34;47.11;98585.63;5040398;28;20416;-51
2022/01/30 12:59:17;;;;;;;8.05;0.73;;;;;;;6.18;45.31;98603.81;5027550;28;20048;-48
2022/01/30 13:02:05;;;;;;;4.43;0.47;;;;;;;6.18;45.56;98602.97;5025025;28;20156;-51
2022/01/30 13:05:09;;;;;;;2.45;0.43;;;;;;;6.13;45.32;98622.28;5024263;28;20060;-52
2022/01/30 13:07:57;;;;;;;6.68;0.82;;;;;;;6.30;45.42;98602.28;5016735;28;20125;-48
2022/01/30 13:10:43;;;;;;;2.17;0.45;;;;;;;6.27;44.54;98603.31;5027044;28;20057;-50
2022/01/30 13:13:58;;;;;;;5.32;0.75;;;;;;;6.09;44.72;98606.91;5033719;28;20064;-47
2022/01/30 13:16:46;;;;;;;6.30;0.65;;;;;;;5.99;45.44;98622.13;5033822;28;20068;-50
2022/01/30 13:19:38;;;;;;;4.82;0.70;;;;;;;5.87;46.14;98603.63;5033553;28;20048;-48
2022/01/30 13:22:33;;;;;;;4.90;0.60;;;;;;;5.92;46.41;98619.81;5039541;28;20069;-53
2022/01/30 13:25:20;;;;;;;6.03;0.65;;;;;;;5.98;46.56;98629.06;5033597;28;20076;-51
2022/01/30 13:28:06;;;;;;;5.63;0.85;;;;;;;6.18;46.75;98624.63;5033297;28;20061;-52
2022/01/30 13:30:53;;;;;;;2.70;0.50;;;;;;;6.19;46.82;98636.69;5033910;28;20056;-49
2022/01/30 13:33:39;;;;;;;6.35;0.93;;;;;;;6.04;45.73;98581.97;5032975;28;20057;-49
2022/01/30 13:36:25;;;;;;;6.57;1.08;;;;;;;5.98;45.28;98616.06;5038244;28;20052;-52
2022/01/30 13:39:16;;;;;;;6.45;0.80;;;;;;;5.91;44.47;98625.94;5031423;28;20491;-51
2022/01/30 13:42:42;;;;;;;4.68;0.70;;;;;;;5.95;44.22;98633.59;5023634;28;20400;-50
2022/01/30 13:49:04;;;;;;;5.70;0.60;;;;;;;5.93;45.28;98628.47;5009532;28;20409;-50
2022/01/30 13:52:05;;;;;;;6.05;0.70;;;;;;;5.87;45.24;98629.63;5006060;28;20049;-55
2022/01/30 13:55:03;;;;;;;10.68;0.88;;;;;;;5.83;45.06;98611.63;5007301;28;20096;-51
2022/01/30 13:57:56;;;;;;;6.43;0.90;;;;;;;5.88;45.76;98674.66;4997315;28;20543;-55
2022/01/30 14:00:41;;;;;;;8.50;0.73;;;;;;;5.75;45.88;98674.44;5000706;28;20150;-54
2022/01/30 14:03:29;;;;;;;2.15;0.63;;;;;;;5.73;46.61;98660.69;5008549;28;20045;-53
2022/01/30 14:06:22;;;;;;;3.97;0.70;;;;;;;5.75;46.73;98659.69;5008779;28;20401;-53
2022/01/30 14:09:13;;;;;;;4.18;0.75;;;;;;;5.71;46.47;98673.78;5010410;28;20072;-54
2022/01/30 14:12:07;;;;;;;4.63;0.75;;;;;;;5.62;46.38;98669.84;5010918;28;20057;-53
2022/01/30 14:15:07;;;;;;;5.45;1.10;;;;;;;5.61;46.76;98675.13;5005040;28;20057;-48
2022/01/30 14:18:19;;;;;;;5.05;0.80;;;;;;;5.59;46.31;98671.75;4996064;28;20153;-57
2022/01/30 14:21:15;;;;;;;4.43;0.65;;;;;;;5.52;47.29;98694.59;5000125;28;20478;-47
2022/01/30 14:24:13;;;;;;;3.53;0.55;;;;;;;5.53;46.07;98694.53;5004852;28;20057;-50
2022/01/30 14:27:10;;;;;;;10.65;0.90;;;;;;;5.41;45.28;98672.59;5020040;28;20049;-43